Time;durP1;ratioP1;P1;durP2;ratioP2;P2;SDS_P1;SDS_P2;PMS_P1;PMS_P2;Temp;Humidity;BMP_temperature;BMP_pressure;BME280_temperature;BME280_humidity;BME280_pressure;Samples;Min_cycle;Max_cycle;Signal;HPM_P1;HPM_P2
2022/12/14 00:01:19;;;;;;;;;;;;;;;-1.29;99.03;100588.94;5100083;28;19927;-72
2022/12/14 00:03:45;;;;;;;;;;;;;;;-1.28;99.37;100585.50;5101463;28;19979;-72
2022/12/14 00:06:12;;;;;;;;;;;;;;;-1.28;99.44;100587.22;5083498;28;19923;-72
2022/12/14 00:08:37;;;;;;;;;;;;;;;-1.27;99.69;100583.81;5107106;28;20117;-72
2022/12/14 00:11:02;;;;;;;;;;;;;;;-1.26;99.89;100583.81;5101378;28;19931;-72
2022/12/14 00:13:28;;;;;;;;;;;;;;;-1.24;100.00;100583.81;5103427;28;20713;-72
2022/12/14 00:15:53;;;;;;;;;;;;;;;-1.25;100.00;100574.41;5088561;28;19931;-72
2022/12/14 00:18:18;;;;;;;;;;;;;;;-1.25;100.00;100564.97;5083589;28;19933;-72
2022/12/14 00:20:43;;;;;;;;;;;;;;;-1.33;97.98;100558.09;5091891;28;19999;-72
2022/12/14 00:23:09;;;;;;;;;;;;;;;-1.38;96.35;100561.50;5083626;28;19952;-72
2022/12/14 00:25:34;;;;;;;;;;;;;;;-1.40;96.18;100552.06;5092145;28;19924;-72
2022/12/14 00:28:00;;;;;;;;;;;;;;;-1.42;95.93;100539.22;5095515;28;19917;-72
2022/12/14 00:30:25;;;;;;;;;;;;;;;-1.44;96.12;100535.78;5097163;28;20004;-72
2022/12/14 00:32:50;;;;;;;;;;;;;;;-1.45;95.56;100528.09;5083029;28;19928;-72
2022/12/14 00:35:16;;;;;;;;;;;;;;;-1.49;95.05;100537.50;5095252;28;19916;-72
2022/12/14 00:37:42;;;;;;;;;;;;;;;-1.47;95.73;100528.09;5083209;28;19967;-72
2022/12/14 00:40:08;;;;;;;;;;;;;;;-1.47;96.00;100537.50;5083719;28;20254;-72
2022/12/14 00:42:33;;;;;;;;;;;;;;;-1.48;95.60;100528.91;5103334;28;20130;-72
2022/12/14 00:44:59;;;;;;;;;;;;;;;-1.48;95.33;100521.22;5103676;28;20182;-72
2022/12/14 00:47:24;;;;;;;;;;;;;;;-1.47;95.86;100514.38;5085170;28;19928;-72
2022/12/14 00:49:50;;;;;;;;;;;;;;;-1.47;96.14;100527.22;5082909;28;20346;-72
2022/12/14 00:52:15;;;;;;;;;;;;;;;-1.48;95.36;100515.22;5098685;28;19970;-72
2022/12/14 00:54:41;;;;;;;;;;;;;;;-1.47;95.24;100524.66;5090186;28;20073;-72
2022/12/14 00:57:06;;;;;;;;;;;;;;;-1.45;96.28;100516.09;5095868;28;20175;-72
2022/12/14 00:59:31;;;;;;;;;;;;;;;-1.43;96.64;100508.41;5111471;28;19915;-72
2022/12/14 01:01:56;;;;;;;;;;;;;;;-1.42;96.62;100510.97;5112454;28;20252;-72
2022/12/14 01:04:23;;;;;;;;;;;;;;;-1.43;95.97;100516.09;5103073;28;19920;-72
2022/12/14 01:06:49;;;;;;;;;;;;;;;-1.42;96.07;100510.09;5094735;28;19954;-72
2022/12/14 01:09:15;;;;;;;;;;;;;;;-1.41;96.79;100507.53;5082338;28;19983;-72
2022/12/14 01:11:41;;;;;;;;;;;;;;;-1.41;96.90;100502.41;5094037;28;19929;-72
2022/12/14 01:14:06;;;;;;;;;;;;;;;-1.44;95.47;100494.69;5081845;28;19921;-72
2022/12/14 01:16:32;;;;;;;;;;;;;;;-1.43;95.96;100498.13;5093487;28;19920;-72
2022/12/14 01:18:58;;;;;;;;;;;;;;;-1.46;94.86;100496.38;5083015;28;19921;-72
2022/12/14 01:21:23;;;;;;;;;;;;;;;-1.48;94.89;100490.38;5082941;28;19927;-72
2022/12/14 01:23:53;;;;;;;;;;;;;;;-1.47;94.55;100504.13;5102741;28;19932;-72
2022/12/14 01:26:18;;;;;;;;;;;;;;;-1.46;95.00;100495.53;5097827;28;19920;-72
2022/12/14 01:28:50;;;;;;;;;;;;;;;-1.44;96.01;100499.81;5102530;28;19990;-72
2022/12/14 01:31:16;;;;;;;;;;;;;;;-1.44;95.84;100494.69;5109964;28;20088;-72
2022/12/14 01:33:41;;;;;;;;;;;;;;;-1.42;96.24;100505.84;5100454;28;19965;-72
2022/12/14 01:36:09;;;;;;;;;;;;;;;-1.41;96.40;100509.25;5102809;28;19924;-72
2022/12/14 01:38:34;;;;;;;;;;;;;;;-1.41;96.17;100512.69;5087327;28;19920;-72
2022/12/14 01:41:00;;;;;;;;;;;;;;;-1.38;96.69;100520.41;5090994;28;20119;-72
2022/12/14 01:43:43;;;;;;;;;;;;;;;-1.36;97.04;100507.56;5090539;28;19958;-72
2022/12/14 01:46:09;;;;;;;;;;;;;;;-1.36;97.55;100507.56;5082214;28;19916;-72
2022/12/14 01:48:34;;;;;;;;;;;;;;;-1.31;97.84;100508.44;5093194;28;19954;-72
2022/12/14 01:50:59;;;;;;;;;;;;;;;-1.30;98.29;100497.28;5101994;28;19947;-72
2022/12/14 01:53:24;;;;;;;;;;;;;;;-1.28;98.61;100497.31;5093117;28;19958;-72
2022/12/14 01:55:53;;;;;;;;;;;;;;;-1.27;98.66;100494.75;5081562;28;19924;-72
2022/12/14 01:58:23;;;;;;;;;;;;;;;-1.26;98.71;100499.00;5082134;28;19991;-72
2022/12/14 02:00:51;;;;;;;;;;;;;;;-1.25;98.85;100499.88;5108268;28;19927;-72
2022/12/14 02:03:25;;;;;;;;;;;;;;;-1.25;99.05;100500.75;5086038;28;19958;-72
2022/12/14 02:05:57;;;;;;;;;;;;;;;-1.25;99.05;100489.59;5101778;28;19916;-72
2022/12/14 02:08:23;;;;;;;;;;;;;;;-1.26;98.71;100487.88;5096859;28;20104;-72
2022/12/14 02:10:49;;;;;;;;;;;;;;;-1.29;97.77;100486.19;5081228;28;19928;-72
2022/12/14 02:13:22;;;;;;;;;;;;;;;-1.30;97.78;100499.88;5083545;28;19931;-72
2022/12/14 02:15:47;;;;;;;;;;;;;;;-1.28;98.19;100497.31;5101592;28;20095;-72
2022/12/14 02:18:16;;;;;;;;;;;;;;;-1.26;98.67;100498.16;5100320;28;19927;-72
2022/12/14 02:21:00;;;;;;;;;;;;;;;-1.26;98.81;100498.16;5081078;28;19983;-72
2022/12/14 02:23:25;;;;;;;;;;;;;;;-1.27;98.82;100494.75;5082799;28;19912;-72
2022/12/14 02:26:09;;;;;;;;;;;;;;;-1.28;98.61;100495.59;5101543;28;20000;-72
2022/12/14 02:28:52;;;;;;;;;;;;;;;-1.30;97.95;100494.72;5100144;28;19983;-72
2022/12/14 02:31:30;;;;;;;;;;;;;;;-1.28;98.25;100505.00;5121838;28;20267;-72
2022/12/14 02:33:58;;;;;;;;;;;;;;;-1.27;98.92;100501.59;5117580;28;19938;-72
2022/12/14 02:36:28;;;;;;;;;;;;;;;-1.25;99.40;100497.31;5101092;28;20262;-72
2022/12/14 02:39:02;;;;;;;;;;;;;;;-1.24;99.81;100496.44;5099276;28;19916;-72
2022/12/14 02:41:37;;;;;;;;;;;;;;;-1.24;99.69;100494.72;5080997;28;19917;-73
2022/12/14 02:44:14;;;;;;;;;;;;;;;-1.23;99.86;100493.03;5098783;28;19983;-72
2022/12/14 02:46:48;;;;;;;;;;;;;;;-1.22;100.00;100492.16;5099755;28;19926;-72
2022/12/14 02:49:16;;;;;;;;;;;;;;;-1.23;99.83;100490.47;5099549;28;19920;-71
2022/12/14 02:51:57;;;;;;;;;;;;;;;-1.25;99.71;100485.31;5080420;28;19909;-72
2022/12/14 02:54:25;;;;;;;;;;;;;;;-1.25;99.39;100480.19;5081447;28;19923;-72
2022/12/14 02:56:54;;;;;;;;;;;;;;;-1.24;99.81;100481.88;5100569;28;19949;-72
2022/12/14 02:59:20;;;;;;;;;;;;;;;-1.24;99.93;100483.59;5108061;28;20099;-72
2022/12/14 03:01:46;;;;;;;;;;;;;;;-1.24;100.00;100487.03;5081066;28;19920;-72
2022/12/14 03:04:11;;;;;;;;;;;;;;;-1.23;100.00;100482.75;5100565;28;19962;-72
2022/12/14 03:06:37;;;;;;;;;;;;;;;-1.23;100.00;100475.91;5083169;28;20271;-72
2022/12/14 03:09:02;;;;;;;;;;;;;;;-1.23;100.00;100468.19;5080523;28;19947;-72
2022/12/14 03:11:34;;;;;;;;;;;;;;;-1.23;100.00;100464.78;5094779;28;19965;-73
2022/12/14 03:14:07;;;;;;;;;;;;;;;-1.23;100.00;100452.78;5100865;28;19920;-72
2022/12/14 03:16:43;;;;;;;;;;;;;;;-1.23;100.00;100457.06;5094236;28;20124;-72
2022/12/14 03:19:11;;;;;;;;;;;;;;;-1.24;100.00;100443.34;5100996;28;19938;-72
2022/12/14 03:21:40;;;;;;;;;;;;;;;-1.23;100.00;100446.78;5085938;28;19916;-72
2022/12/14 03:24:09;;;;;;;;;;;;;;;-1.25;100.00;100440.78;5080464;28;19920;-72
2022/12/14 03:26:44;;;;;;;;;;;;;;;-1.26;100.00;100432.19;5091564;28;19920;-72
2022/12/14 03:29:13;;;;;;;;;;;;;;;-1.26;100.00;100428.78;5106106;28;19946;-72
2022/12/14 03:31:55;;;;;;;;;;;;;;;-1.28;100.00;100430.50;5101180;28;19923;-72
2022/12/14 03:34:24;;;;;;;;;;;;;;;-1.28;100.00;100426.22;5099971;28;19923;-72
2022/12/14 03:36:55;;;;;;;;;;;;;;;-1.28;100.00;100426.22;5087796;28;19921;-72
2022/12/14 03:39:26;;;;;;;;;;;;;;;-1.29;100.00;100421.94;5095443;28;19927;-72
2022/12/14 03:41:58;;;;;;;;;;;;;;;-1.28;100.00;100423.63;5100264;28;20143;-72
2022/12/14 03:44:23;;;;;;;;;;;;;;;-1.28;100.00;100423.63;5088772;28;19919;-72
2022/12/14 03:46:56;;;;;;;;;;;;;;;-1.28;100.00;100421.06;5087148;28;20163;-72
2022/12/14 03:49:28;;;;;;;;;;;;;;;-1.29;100.00;100414.25;5098638;28;19959;-72
2022/12/14 03:51:58;;;;;;;;;;;;;;;-1.29;100.00;100415.94;5099898;28;19989;-72
2022/12/14 03:54:42;;;;;;;;;;;;;;;-1.29;100.00;100419.38;5091657;28;19928;-73
2022/12/14 03:57:17;;;;;;;;;;;;;;;-1.29;100.00;100405.66;5080373;28;20150;-73
2022/12/14 03:59:54;;;;;;;;;;;;;;;-1.31;100.00;100408.25;5100420;28;19919;-73
2022/12/14 04:02:24;;;;;;;;;;;;;;;-1.31;100.00;100410.81;5111660;28;19920;-72
2022/12/14 04:04:55;;;;;;;;;;;;;;;-1.30;100.00;100407.38;5089118;28;20253;-72
2022/12/14 04:07:20;;;;;;;;;;;;;;;-1.29;100.00;100408.22;5100092;28;20011;-72
2022/12/14 04:18:55;;;;;;;;;;;;;;;-1.33;100.00;100409.94;5092706;28;19917;-72
2022/12/14 04:21:17;;;;;;;;;;;;;;;-1.34;100.00;100397.94;5082120;28;19958;-73
2022/12/14 04:26:35;;;;;;;;;;;;;;;-1.32;100.00;100390.25;5097826;28;19955;-72
2022/12/14 04:32:00;;;;;;;;;;;;;;;-1.32;100.00;100385.13;5079204;28;19947;-72
2022/12/14 04:34:28;;;;;;;;;;;;;;;-1.32;100.00;100379.97;5096372;28;19916;-72
2022/12/14 04:36:56;;;;;;;;;;;;;;;-1.33;100.00;100381.66;5062089;28;19924;-72
2022/12/14 04:39:24;;;;;;;;;;;;;;;-1.34;100.00;100372.25;5097088;28;20258;-72
2022/12/14 04:41:52;;;;;;;;;;;;;;;-1.33;100.00;100376.53;5082544;28;19991;-72
2022/12/14 04:44:21;;;;;;;;;;;;;;;-1.33;100.00;100371.38;5079624;28;20143;-72
2022/12/14 04:46:47;;;;;;;;;;;;;;;-1.34;100.00;100369.69;5080606;28;19912;-72
2022/12/14 04:49:12;;;;;;;;;;;;;;;-1.33;100.00;100370.53;5081602;28;19951;-72
2022/12/14 04:51:44;;;;;;;;;;;;;;;-1.33;100.00;100367.97;5096644;28;19920;-72
2022/12/14 04:54:13;;;;;;;;;;;;;;;-1.34;100.00;100376.56;5103602;28;19923;-72
2022/12/14 04:56:43;;;;;;;;;;;;;;;-1.36;100.00;100364.56;5090983;28;20112;-72
2022/12/14 04:59:08;;;;;;;;;;;;;;;-1.34;100.00;100366.28;5094078;28;19908;-72
2022/12/14 05:01:52;;;;;;;;;;;;;;;-1.34;100.00;100361.13;5111826;28;19931;-72
2022/12/14 05:04:24;;;;;;;;;;;;;;;-1.35;100.00;100362.81;5103372;28;19987;-72
2022/12/14 05:07:01;;;;;;;;;;;;;;;-1.34;100.00;100363.72;5091698;28;19948;-72
2022/12/14 05:09:59;;;;;;;;;;;;;;;-1.35;100.00;100357.69;5082728;28;19917;-72
2022/12/14 05:12:34;;;;;;;;;;;;;;;-1.36;100.00;100356.84;5059992;28;19925;-72
2022/12/14 05:15:05;;;;;;;;;;;;;;;-1.35;100.00;100360.25;5082891;28;19917;-72
2022/12/14 05:17:33;;;;;;;;;;;;;;;-1.36;100.00;100361.97;5096320;28;19927;-72
2022/12/14 05:19:58;;;;;;;;;;;;;;;-1.37;100.00;100362.81;5103498;28;19908;-72
2022/12/14 05:22:24;;;;;;;;;;;;;;;-1.38;100.00;100368.00;5089974;28;20313;-72
2022/12/14 05:24:49;;;;;;;;;;;;;;;-1.39;100.00;100359.41;5082073;28;19995;-72
2022/12/14 05:27:14;;;;;;;;;;;;;;;-1.41;100.00;100358.53;5092806;28;20256;-72
2022/12/14 05:29:40;;;;;;;;;;;;;;;-1.42;100.00;100355.97;5111822;28;19927;-72
2022/12/14 05:32:05;;;;;;;;;;;;;;;-1.43;100.00;100354.28;5115450;28;19969;-72
2022/12/14 05:34:30;;;;;;;;;;;;;;;-1.44;100.00;100355.97;5101946;28;20255;-72
2022/12/14 05:36:56;;;;;;;;;;;;;;;-1.45;100.00;100361.97;5098174;28;20101;-72
2022/12/14 05:39:22;;;;;;;;;;;;;;;-1.46;100.00;100357.69;5082203;28;19916;-72
2022/12/14 05:41:47;;;;;;;;;;;;;;;-1.46;100.00;100367.09;5083991;28;20200;-72
2022/12/14 05:44:12;;;;;;;;;;;;;;;-1.48;100.00;100359.41;5102368;28;19958;-72
2022/12/14 05:46:38;;;;;;;;;;;;;;;-1.50;100.00;100361.09;5102079;28;19919;-72
2022/12/14 05:49:03;;;;;;;;;;;;;;;-1.51;100.00;100358.53;5082422;28;20112;-72
2022/12/14 05:51:28;;;;;;;;;;;;;;;-1.52;100.00;100357.69;5082026;28;19940;-72
2022/12/14 05:53:53;;;;;;;;;;;;;;;-1.53;100.00;100357.69;5098094;28;19916;-72
2022/12/14 05:56:19;;;;;;;;;;;;;;;-1.55;100.00;100357.69;5093622;28;20139;-72
2022/12/14 05:58:48;;;;;;;;;;;;;;;-1.56;100.00;100358.56;5091181;28;20143;-72
2022/12/14 06:01:13;;;;;;;;;;;;;;;-1.58;100.00;100355.13;5122201;28;19916;-72
2022/12/14 06:03:39;;;;;;;;;;;;;;;-1.60;100.00;100347.41;5096954;28;19987;-72
2022/12/14 06:06:05;;;;;;;;;;;;;;;-1.63;100.00;100349.97;5097022;28;19924;-72
2022/12/14 06:08:35;;;;;;;;;;;;;;;-1.64;100.00;100350.81;5091297;28;20216;-72
2022/12/14 06:11:02;;;;;;;;;;;;;;;-1.65;100.00;100343.13;5081971;28;19980;-72
2022/12/14 06:13:27;;;;;;;;;;;;;;;-1.67;100.00;100345.69;5088695;28;20012;-72
2022/12/14 06:15:52;;;;;;;;;;;;;;;-1.67;100.00;100347.38;5091465;28;19916;-72
2022/12/14 06:18:18;;;;;;;;;;;;;;;-1.70;100.00;100352.53;5085902;28;19999;-72
2022/12/14 06:20:43;;;;;;;;;;;;;;;-1.71;100.00;100345.66;5101577;28;20107;-72
2022/12/14 06:23:09;;;;;;;;;;;;;;;-1.73;100.00;100348.22;5099239;28;19924;-72
2022/12/14 06:25:34;;;;;;;;;;;;;;;-1.75;100.00;100339.66;5094539;28;20099;-72
2022/12/14 06:27:59;;;;;;;;;;;;;;;-1.76;100.00;100348.25;5102259;28;19924;-72
2022/12/14 06:30:25;;;;;;;;;;;;;;;-1.77;100.00;100346.53;5090562;28;20436;-72
2022/12/14 06:32:50;;;;;;;;;;;;;;;-1.79;100.00;100336.25;5092858;28;19928;-72
2022/12/14 06:35:16;;;;;;;;;;;;;;;-1.79;100.00;100337.97;5091226;28;19925;-72
2022/12/14 06:37:41;;;;;;;;;;;;;;;-1.80;100.00;100336.22;5090686;28;20021;-72
2022/12/14 06:40:06;;;;;;;;;;;;;;;-1.82;100.00;100341.41;5090971;28;20089;-72
2022/12/14 06:42:32;;;;;;;;;;;;;;;-1.82;100.00;100343.97;5089163;28;19920;-72
2022/12/14 06:44:57;;;;;;;;;;;;;;;-1.83;100.00;100339.66;5090140;28;19935;-72
2022/12/14 06:47:22;;;;;;;;;;;;;;;-1.83;100.00;100342.22;5091426;28;20119;-72
2022/12/14 06:49:48;;;;;;;;;;;;;;;-1.84;100.00;100350.78;5089844;28;19995;-72
2022/12/14 06:52:14;;;;;;;;;;;;;;;-1.86;100.00;100344.78;5090696;28;19920;-72
2022/12/14 06:54:39;;;;;;;;;;;;;;;-1.86;100.00;100344.78;5088364;28;20085;-72
2022/12/14 06:57:04;;;;;;;;;;;;;;;-1.87;100.00;100340.53;5091193;28;20386;-72
2022/12/14 06:59:29;;;;;;;;;;;;;;;-1.88;100.00;100343.09;5089357;28;19924;-72
2022/12/14 07:01:55;;;;;;;;;;;;;;;-1.89;100.00;100342.22;5089386;28;19944;-72
2022/12/14 07:04:20;;;;;;;;;;;;;;;-1.90;100.00;100335.38;5095083;28;19969;-72
2022/12/14 07:06:45;;;;;;;;;;;;;;;-1.91;100.00;100336.25;5089812;28;19958;-72
2022/12/14 07:09:12;;;;;;;;;;;;;;;-1.92;100.00;100344.78;5088786;28;19923;-72
2022/12/14 07:11:37;;;;;;;;;;;;;;;-1.93;100.00;100343.06;5088488;28;19927;-72
2022/12/14 07:14:05;;;;;;;;;;;;;;;-1.92;100.00;100351.63;5090759;28;20108;-72
2022/12/14 07:16:30;;;;;;;;;;;;;;;-1.96;100.00;100350.78;5087816;28;20135;-72
2022/12/14 07:18:55;;;;;;;;;;;;;;;-1.97;100.00;100354.16;5087887;28;19924;-72
2022/12/14 07:21:21;;;;;;;;;;;;;;;-2.01;100.00;100355.88;5087930;28;19912;-72
2022/12/14 07:23:47;;;;;;;;;;;;;;;-2.02;100.00;100361.88;5088746;28;19912;-72
2022/12/14 07:26:16;;;;;;;;;;;;;;;-2.04;100.00;100355.84;5089345;28;19920;-72
2022/12/14 07:28:43;;;;;;;;;;;;;;;-2.05;100.00;100356.72;5094967;28;19919;-72
2022/12/14 07:31:12;;;;;;;;;;;;;;;-2.06;100.00;100369.53;5092238;28;19916;-72
2022/12/14 07:33:40;;;;;;;;;;;;;;;-2.06;100.00;100359.28;5087417;28;20411;-72
2022/12/14 07:36:12;;;;;;;;;;;;;;;-2.08;100.00;100361.00;5089291;28;19919;-72
2022/12/14 07:38:38;;;;;;;;;;;;;;;-2.11;100.00;100359.28;5088904;28;19927;-72
2022/12/14 07:41:05;;;;;;;;;;;;;;;-2.12;100.00;100367.81;5094982;28;19921;-72
2022/12/14 07:43:30;;;;;;;;;;;;;;;-2.14;100.00;100367.81;5089912;28;20224;-72
2022/12/14 07:46:00;;;;;;;;;;;;;;;-2.16;100.00;100372.06;5088538;28;19954;-72
2022/12/14 07:48:25;;;;;;;;;;;;;;;-2.17;100.00;100372.91;5087905;28;19955;-72
2022/12/14 07:50:50;;;;;;;;;;;;;;;-2.19;100.00;100368.66;5095052;28;19924;-72
2022/12/14 07:53:15;;;;;;;;;;;;;;;-2.20;100.00;100372.03;5099215;28;19982;-72
2022/12/14 07:55:41;;;;;;;;;;;;;;;-2.21;100.00;100378.91;5093324;28;19920;-72
2022/12/14 07:58:06;;;;;;;;;;;;;;;-2.23;100.00;100383.16;5093651;28;19977;-72
2022/12/14 08:00:31;;;;;;;;;;;;;;;-2.22;100.00;100381.44;5113702;28;19986;-72
2022/12/14 08:02:56;;;;;;;;;;;;;;;-2.24;100.00;100376.31;5118871;28;19918;-72
2022/12/14 08:05:22;;;;;;;;;;;;;;;-2.25;100.00;100376.31;5098785;28;19931;-72
2022/12/14 08:07:47;;;;;;;;;;;;;;;-2.25;100.00;100384.03;5099160;28;20269;-72
2022/12/14 08:10:12;;;;;;;;;;;;;;;-2.27;100.00;100384.00;5096885;28;19924;-72
2022/12/14 08:12:37;;;;;;;;;;;;;;;-2.27;100.00;100383.13;5098447;28;19954;-72
2022/12/14 08:15:03;;;;;;;;;;;;;;;-2.28;100.00;100377.16;5099235;28;20192;-72
2022/12/14 08:17:28;;;;;;;;;;;;;;;-2.28;100.00;100381.44;5081314;28;19912;-72
2022/12/14 08:19:53;;;;;;;;;;;;;;;-2.29;100.00;100383.16;5078126;28;19916;-72
2022/12/14 08:22:18;;;;;;;;;;;;;;;-2.30;100.00;100388.28;5078490;28;20391;-72
2022/12/14 08:24:44;;;;;;;;;;;;;;;-2.31;100.00;100382.25;5086562;28;20262;-72
2022/12/14 08:27:09;;;;;;;;;;;;;;;-2.32;100.00;100393.38;5091604;28;19924;-72
2022/12/14 08:29:34;;;;;;;;;;;;;;;-2.31;100.00;100392.53;5093997;28;19939;-72
2022/12/14 08:31:59;;;;;;;;;;;;;;;-2.34;100.00;100390.81;5090713;28;19966;-72
2022/12/14 08:34:25;;;;;;;;;;;;;;;-2.34;100.00;100387.41;5090470;28;19933;-72
2022/12/14 08:36:50;;;;;;;;;;;;;;;-2.34;100.00;100395.09;5092233;28;19916;-72
2022/12/14 08:39:15;;;;;;;;;;;;;;;-2.35;100.00;100404.50;5093413;28;19958;-72
2022/12/14 08:41:40;;;;;;;;;;;;;;;-2.35;100.00;100403.63;5091463;28;19954;-72
2022/12/14 08:44:06;;;;;;;;;;;;;;;-2.36;100.00;100407.06;5093129;28;19920;-72
2022/12/14 08:46:32;;;;;;;;;;;;;;;-2.37;100.00;100402.75;5091356;28;20152;-71
2022/12/14 08:48:58;;;;;;;;;;;;;;;-2.38;100.00;100407.03;5090995;28;19924;-71
2022/12/14 08:51:25;;;;;;;;;;;;;;;-2.39;100.00;100401.91;5090026;28;20219;-71
2022/12/14 08:53:51;;;;;;;;;;;;;;;-2.39;100.00;100400.19;5091206;28;19919;-71
2022/12/14 08:56:17;;;;;;;;;;;;;;;-2.40;100.00;100405.31;5092429;28;19916;-71
2022/12/14 08:58:43;;;;;;;;;;;;;;;-2.40;100.00;100400.16;5094266;28;19943;-71
2022/12/14 09:01:12;;;;;;;;;;;;;;;-2.42;100.00;100413.00;5089406;28;19920;-73
2022/12/14 09:03:38;;;;;;;;;;;;;;;-2.42;100.00;100407.88;5086195;28;19925;-73
2022/12/14 09:06:05;;;;;;;;;;;;;;;-2.42;100.00;100407.88;5090867;28;19927;-73
2022/12/14 09:08:31;;;;;;;;;;;;;;;-2.41;100.00;100408.72;5091399;28;19975;-73
2022/12/14 09:10:56;;;;;;;;;;;;;;;-2.41;100.00;100406.16;5091482;28;19935;-73
2022/12/14 09:13:21;;;;;;;;;;;;;;;-2.41;100.00;100406.16;5090150;28;19916;-73
2022/12/14 09:15:55;;;;;;;;;;;;;;;-2.42;100.00;100407.88;5092596;28;20003;-73
2022/12/14 09:18:20;;;;;;;;;;;;;;;-2.42;100.00;100410.44;5089575;28;20036;-74
2022/12/14 09:20:45;;;;;;;;;;;;;;;-2.42;100.00;100404.44;5091480;28;20249;-73
2022/12/14 09:23:10;;;;;;;;;;;;;;;-2.41;100.00;100404.44;5091154;28;19913;-74
2022/12/14 09:25:36;;;;;;;;;;;;;;;-2.40;100.00;100407.88;5089353;28;19917;-74
2022/12/14 09:28:01;;;;;;;;;;;;;;;-2.41;100.00;100408.72;5085167;28;20147;-73
2022/12/14 09:30:26;;;;;;;;;;;;;;;-2.41;100.00;100411.28;5094433;28;20031;-73
2022/12/14 09:32:51;;;;;;;;;;;;;;;-2.41;100.00;100419.84;5095355;28;19928;-73
2022/12/14 09:35:16;;;;;;;;;;;;;;;-2.42;100.00;100409.56;5086929;28;20135;-73
2022/12/14 09:37:42;;;;;;;;;;;;;;;-2.42;100.00;100409.56;5090549;28;19958;-73
2022/12/14 09:40:09;;;;;;;;;;;;;;;-2.41;100.00;100416.44;5087661;28;19924;-73
2022/12/14 09:42:40;;;;;;;;;;;;;;;-2.40;100.00;100418.13;5087649;28;19920;-73
2022/12/14 09:45:13;;;;;;;;;;;;;;;-2.38;100.00;100419.03;5091674;28;19959;-74
2022/12/14 09:47:48;;;;;;;;;;;;;;;-2.40;100.00;100410.44;5087808;28;19920;-73
2022/12/14 09:50:19;;;;;;;;;;;;;;;-2.38;100.00;100417.31;5086881;28;19924;-73
2022/12/14 09:52:50;;;;;;;;;;;;;;;-2.38;100.00;100421.59;5089147;28;19973;-73
2022/12/14 09:55:26;;;;;;;;;;;;;;;-2.38;100.00;100426.72;5093234;28;20214;-73
2022/12/14 09:57:58;;;;;;;;;;;;;;;-2.37;100.00;100423.28;5085847;28;19948;-73
2022/12/14 10:00:24;;;;;;;;;;;;;;;-2.35;100.00;100426.72;5094802;28;19979;-73
2022/12/14 10:02:52;;;;;;;;;;;;;;;-2.36;100.00;100412.19;5085173;28;19952;-74
2022/12/14 10:05:36;;;;;;;;;;;;;;;-2.35;100.00;100422.47;5091077;28;19951;-74
2022/12/14 10:08:09;;;;;;;;;;;;;;;-2.35;100.00;100424.13;5094496;28;19955;-73
2022/12/14 10:10:34;;;;;;;;;;;;;;;-2.35;100.00;100427.59;5099151;28;20233;-73
2022/12/14 10:13:18;;;;;;;;;;;;;;;-2.33;100.00;100425.00;5094468;28;20241;-73
2022/12/14 10:15:43;;;;;;;;;;;;;;;-2.32;100.00;100422.44;5090027;28;19923;-73
2022/12/14 10:18:32;;;;;;;;;;;;;;;-2.30;100.00;100425.03;5090366;28;19912;-74
2022/12/14 10:21:00;;;;;;;;;;;;;;;-2.29;100.00;100423.31;5079570;28;19987;-73
2022/12/14 10:23:25;;;;;;;;;;;;;;;-2.29;100.00;100428.44;5086401;28;19920;-73
2022/12/14 10:25:53;;;;;;;;;;;;;;;-2.33;98.55;100423.31;5094080;28;19920;-73
2022/12/14 10:28:23;;;;;;;;;;;;;;;-2.29;98.83;100415.63;5098497;28;20214;-73
2022/12/14 10:30:51;;;;;;;;;;;;;;;-2.28;99.51;100413.06;5098815;28;19923;-73
2022/12/14 10:33:21;;;;;;;;;;;;;;;-2.24;99.64;100408.81;5097360;28;19978;-73
2022/12/14 10:36:01;;;;;;;;;;;;;;;-2.22;99.91;100409.66;5096415;28;19920;-73
2022/12/14 10:38:40;;;;;;;;;;;;;;;-2.22;99.90;100410.53;5089374;28;19927;-73
2022/12/14 10:41:20;;;;;;;;;;;;;;;-2.23;99.00;100408.81;5084738;28;19915;-73
2022/12/14 10:43:50;;;;;;;;;;;;;;;-2.23;98.52;100406.25;5096354;28;19920;-73
2022/12/14 10:46:21;;;;;;;;;;;;;;;-2.22;97.59;100413.13;5101013;28;20115;-73
2022/12/14 10:49:05;;;;;;;;;;;;;;;-2.19;97.83;100409.69;5090178;28;19917;-73
2022/12/14 10:51:36;;;;;;;;;;;;;;;-2.17;98.21;100400.28;5099385;28;20238;-73
2022/12/14 10:54:09;;;;;;;;;;;;;;;-2.17;98.13;100405.41;5097273;28;19923;-73
2022/12/14 10:56:37;;;;;;;;;;;;;;;-2.15;98.37;100399.47;5094899;28;19955;-73
2022/12/14 10:59:21;;;;;;;;;;;;;;;-2.13;98.45;100396.88;5098541;28;19957;-73
2022/12/14 11:02:06;;;;;;;;;;;;;;;-2.09;98.95;100400.31;5090839;28;19908;-73
2022/12/14 11:04:58;;;;;;;;;;;;;;;-2.08;99.13;100397.75;5091051;28;19920;-73
2022/12/14 11:07:24;;;;;;;;;;;;;;;-2.07;98.61;100388.34;5095480;28;19951;-73
2022/12/14 11:09:50;;;;;;;;;;;;;;;-2.07;97.95;100386.66;5096328;28;19935;-73
2022/12/14 11:12:20;;;;;;;;;;;;;;;-2.05;98.29;100389.25;5093853;28;19992;-73
2022/12/14 11:14:51;;;;;;;;;;;;;;;-2.03;98.29;100393.50;5087651;28;19952;-74
2022/12/14 11:17:32;;;;;;;;;;;;;;;-2.02;98.57;100392.66;5096651;28;19928;-74
2022/12/14 11:20:02;;;;;;;;;;;;;;;-1.99;98.76;100392.66;5088196;28;20066;-74
2022/12/14 11:22:28;;;;;;;;;;;;;;;-1.96;98.96;100389.25;5098079;28;19920;-74
2022/12/14 11:24:53;;;;;;;;;;;;;;;-1.95;98.98;100389.28;5098096;28;19924;-74
2022/12/14 11:27:20;;;;;;;;;;;;;;;-1.92;99.28;100390.13;5080163;28;19924;-74
2022/12/14 11:29:46;;;;;;;;;;;;;;;-1.90;99.28;100396.97;5089069;28;19959;-74
2022/12/14 11:32:17;;;;;;;;;;;;;;;-1.89;99.28;100400.38;5079014;28;19916;-74
2022/12/14 11:34:42;;;;;;;;;;;;;;;-1.87;99.49;100404.69;5078970;28;19931;-74
2022/12/14 11:37:20;;;;;;;;;;;;;;;-1.85;99.69;100402.97;5096782;28;19959;-74
2022/12/14 11:39:49;;;;;;;;;;;;;;;-1.84;99.19;100402.13;5080017;28;19920;-74
2022/12/14 11:42:16;;;;;;;;;;;;;;;-1.85;97.72;100405.56;5096917;28;19950;-74
2022/12/14 11:44:41;;;;;;;;;;;;;;;-1.82;97.81;100412.38;5097988;28;20250;-74
2022/12/14 11:47:32;;;;;;;;;;;;;;;-1.81;97.68;100408.97;5082163;28;19924;-74
2022/12/14 11:49:58;;;;;;;;;;;;;;;-1.83;96.03;100411.53;5077334;28;19924;-74
2022/12/14 11:52:24;;;;;;;;;;;;;;;-1.82;95.92;100405.56;5095172;28;19924;-74
2022/12/14 11:54:55;;;;;;;;;;;;;;;-1.80;96.79;100409.00;5098850;28;19979;-74
2022/12/14 11:57:27;;;;;;;;;;;;;;;-1.78;96.74;100407.28;5085545;28;20175;-74
2022/12/14 11:59:53;;;;;;;;;;;;;;;-1.75;96.94;100411.56;5094488;28;19916;-74
2022/12/14 12:02:22;;;;;;;;;;;;;;;-1.74;97.19;100411.56;5092130;28;19928;-74
2022/12/14 12:04:51;;;;;;;;;;;;;;;-1.69;97.72;100416.72;5103392;28;20198;-74
2022/12/14 12:07:24;;;;;;;;;;;;;;;-1.67;97.88;100411.56;5101994;28;19920;-74
2022/12/14 12:09:50;;;;;;;;;;;;;;;-1.65;98.12;100412.47;5100353;28;20127;-74
2022/12/14 12:12:18;;;;;;;;;;;;;;;-1.64;97.82;100412.44;5092659;28;19924;-74
2022/12/14 12:14:45;;;;;;;;;;;;;;;-1.63;97.31;100406.47;5083528;28;19948;-74
2022/12/14 12:17:23;;;;;;;;;;;;;;;-1.59;97.72;100418.44;5092585;28;19966;-74
2022/12/14 12:19:50;;;;;;;;;;;;;;;-1.57;97.69;100418.44;5089402;28;19913;-74
2022/12/14 12:22:16;;;;;;;;;;;;;;;-1.55;97.96;100420.19;5091993;28;19920;-74
2022/12/14 12:24:49;;;;;;;;;;;;;;;-1.52;98.13;100419.31;5103017;28;19961;-74
2022/12/14 12:27:16;;;;;;;;;;;;;;;-1.50;97.88;100416.78;5096696;28;20246;-74
2022/12/14 12:29:44;;;;;;;;;;;;;;;-1.47;97.71;100411.66;5093054;28;19939;-72
2022/12/14 12:32:12;;;;;;;;;;;;;;;-1.45;97.99;100415.91;5098817;28;19967;-74
2022/12/14 12:34:37;;;;;;;;;;;;;;;-1.44;98.31;100407.34;5082954;28;19962;-74
2022/12/14 12:37:07;;;;;;;;;;;;;;;-1.39;98.54;100407.38;5085982;28;19911;-74
2022/12/14 12:39:34;;;;;;;;;;;;;;;-1.39;98.88;100410.78;5083003;28;19908;-74
2022/12/14 12:42:14;;;;;;;;;;;;;;;-1.37;98.13;100414.19;5084645;28;19913;-74
2022/12/14 12:44:46;;;;;;;;;;;;;;;-1.39;95.21;100413.34;5101230;28;19954;-74
2022/12/14 12:47:28;;;;;;;;;;;;;;;-1.38;94.37;100415.06;5083459;28;19917;-74
2022/12/14 12:50:01;;;;;;;;;;;;;;;-1.34;95.86;100412.53;5083067;28;19912;-74
2022/12/14 12:52:33;;;;;;;;;;;;;;;-1.29;96.44;100421.94;5084504;28;20119;-74